Latest Weather Observations for Dalby

IDQ60801

Issued at 3:35 pm EST Friday 19 September 2014 (issued every 30 minutes, with the page automatically refreshed every 10 minutes)

About weather observations | Map of weather stations | Latest weather observations for QLD | Other Formats
Station Details ID: 041522 Name: DALBY AIRPORT Lat: -27.16 Lon: 151.26 Height: 343.9 m
Data from the previous 72 hours. | See also: Recent months at Dalby
Date/Time
EST
Temp
°C
App
Temp
°C
Dew
Point
Rel
Hum
%
Delta-T
°C
Wind Press
QNH
hPa
Press
MSL
hPa
Rain
since 9 am
mm
Dir
 
Spd
km/h
Gust
km/h
Spd
kts
Gust
kts
19/03:30pm 24.9 19.1 -4.4 14 12.6 SW 17 24 9 13 1016.3 1015.5 0.0
19/03:00pm 24.4 17.9 -5.8 13 12.6 W 20 33 11 18 1016.4 1015.6 0.0
19/02:30pm 24.7 19.6 -5.5 13 12.7 NW 13 24 7 13 1016.7 1015.9 0.0
19/02:00pm 24.1 17.9 -5.0 14 12.3 WNW 19 24 10 13 1017.1 1016.3 0.0
19/01:30pm 24.9 18.6 -4.4 14 12.6 W 20 52 11 28 1017.5 1016.7 0.0
19/01:00pm 23.4 17.1 -5.6 14 12.0 W 19 30 10 16 1018.3 1017.4 0.0
19/12:30pm 23.1 18.4 -4.9 15 11.8 NW 11 24 6 13 1018.9 1018.1 0.0
19/12:00pm 22.0 16.0 -6.7 14 11.5 WSW 17 26 9 14 1019.6 1018.8 0.0
19/11:30am 21.6 15.7 -6.1 15 11.2 SW 17 26 9 14 1020.2 1019.4 0.0
19/11:00am 21.2 17.7 -6.4 15 11.0 ENE 4 - 2 - - 1019.8 -
19/10:30am 20.7 16.7 -5.2 17 10.6 ESE 7 13 4 7 1021.1 1020.3 0.0
19/10:00am 19.9 16.5 -5.1 18 10.1 SSE 4 9 2 5 1021.4 1020.6 0.0
19/09:30am 19.2 14.6 -4.3 20 9.6 SSW 11 20 6 11 1021.9 1021.1 0.0
19/09:00am 18.1 14.0 -3.3 23 8.8 SSE 9 15 5 8 1021.9 1021.1 0.0
19/08:30am 16.0 12.9 -2.5 28 7.6 SSE 4 7 2 4 1022.0 1021.2 0.0
19/08:00am 13.7 10.2 -2.7 32 6.5 SSW 6 9 3 5 1022.0 1021.2 0.0
19/07:30am 10.7 8.4 -2.7 39 5.2 CALM 0 0 0 0 1021.9 1021.1 0.0
19/07:00am 8.2 5.0 -0.8 53 3.5 ENE 6 7 3 4 1021.7 1020.9 0.0
19/06:30am 5.3 1.9 -2.0 59 2.7 E 6 7 3 4 1021.1 1020.3 0.0
19/06:00am 2.9 -0.8 -3.2 64 2.1 E 7 9 4 5 1020.5 1019.7 0.0
19/05:30am 1.2 -3.6 -2.7 75 1.4 ENE 13 15 7 8 1020.5 1019.7 0.0
19/05:00am 2.3 -1.9 -4.0 63 2.1 E 9 11 5 6 1020.3 1019.5 0.0
19/04:30am 3.7 0.1 -2.0 66 2.1 SE 7 9 4 5 1019.9 1019.1 0.0
19/04:00am 3.4 -1.4 -2.7 64 2.2 ENE 13 15 7 8 1019.6 1018.8 0.0
19/03:30am 2.7 -1.8 -3.6 63 2.2 NE 11 13 6 7 1019.5 1018.7 0.0
19/03:00am 3.0 -1.9 -3.3 63 2.2 ENE 13 17 7 9 1019.4 1018.6 0.0
19/02:30am 3.6 0.0 -3.9 58 2.6 ESE 6 9 3 5 1019.6 1018.8 0.0
19/02:00am 3.6 0.5 -2.6 64 2.2 SE 4 7 2 4 1020.2 1019.4 0.0
19/01:30am 3.8 -1.1 -3.7 58 2.6 NE 13 15 7 8 1020.2 1019.4 0.0
19/01:00am 4.1 -0.4 -3.0 60 2.5 ENE 11 13 6 7 1020.1 1019.3 0.0
19/12:30am 4.2 -0.1 -1.4 67 2.1 E 11 13 6 7 1020.3 1019.5 0.0
19/12:00am 4.4 -0.1 -3.1 58 2.7 ENE 11 13 6 7 1020.7 1019.9 0.0
 
Date/Time
EST
Temp
°C
App
Temp
°C
Dew
Point
Rel
Hum
%
Delta-T
°C
Wind Press
QNH
hPa
Press
MSL
hPa
Rain
since 9 am
mm
Dir
 
Spd
km/h
Gust
km/h
Spd
kts
Gust
kts
18/11:30pm 5.4 1.8 -3.6 52 3.2 N 6 7 3 4 1021.2 1020.4 0.0
18/11:00pm 5.5 2.0 -2.8 55 3.0 S 6 9 3 5 1021.1 1020.3 0.0
18/10:30pm 6.6 2.9 -4.8 44 4.0 SW 6 7 3 4 1020.8 1020.0 0.0
18/10:00pm 7.1 3.3 -5.2 41 4.3 WNW 6 6 3 3 1021.0 1020.2 0.0
18/09:30pm 10.4 6.4 -5.2 33 5.7 WSW 7 9 4 5 1020.7 1019.9 0.0
18/09:00pm 13.6 8.5 -5.5 26 7.2 SSW 13 15 7 8 1020.4 1019.6 0.0
18/08:30pm 14.4 9.2 -5.9 24 7.6 SSW 13 15 7 8 1020.3 1019.5 0.0
18/08:00pm 16.5 11.3 -5.9 21 8.6 SSW 13 17 7 9 1019.7 1018.9 0.0
18/07:30pm 17.1 11.9 -6.7 19 9.1 SSW 13 17 7 9 1019.3 1018.5 0.0
18/07:00pm 18.1 12.0 -7.3 17 9.6 S 17 20 9 11 1018.7 1017.9 0.0
18/06:30pm 18.8 13.0 -8.3 15 10.2 SSW 15 20 8 11 1018.3 1017.4 0.0
18/06:00pm 20.5 14.4 -7.9 14 10.9 S 17 20 9 11 1018.0 1017.1 0.0
18/05:30pm 21.9 15.4 -7.7 13 11.6 SSW 19 26 10 14 1017.6 1016.8 0.0
18/05:00pm 23.0 16.7 -5.9 14 11.9 SW 19 28 10 15 1017.3 1016.5 0.0
18/04:30pm 23.6 17.2 -5.4 14 12.1 SW 20 30 11 16 1016.9 1016.1 0.0
18/04:00pm 23.6 17.1 -6.4 13 12.3 W 20 26 11 14 1016.8 1016.0 0.0
18/03:30pm 23.7 16.9 -5.3 14 12.2 SSW 22 30 12 16 1016.8 1016.0 0.0
18/03:00pm 23.5 17.2 -5.5 14 12.1 W 19 28 10 15 1016.9 1016.1 0.0
18/02:30pm 23.5 16.7 -5.5 14 12.1 SSW 22 35 12 19 1017.0 1016.2 0.0
18/02:00pm 23.5 17.7 -4.6 15 11.9 SSW 17 32 9 17 1017.3 1016.5 0.0
18/01:30pm 23.6 17.3 -3.7 16 11.8 SSE 20 30 11 16 1017.6 1016.8 0.0
18/01:00pm 22.8 16.6 -5.2 15 11.6 S 19 30 10 16 1018.4 1017.5 0.0
18/12:30pm 22.4 16.2 -3.1 18 11.0 SW 20 39 11 21 1018.9 1018.1 0.0
18/12:00pm 21.9 15.1 -2.0 20 10.5 W 24 35 13 19 1019.3 1018.5 0.0
18/11:30am 22.0 15.1 -2.7 19 10.7 S 24 35 13 19 1019.8 1019.0 0.0
18/11:00am 20.7 13.3 -3.7 19 10.2 SW 26 37 14 20 1020.4 1019.6 0.0
18/10:30am 20.0 12.8 -2.3 22 9.6 S 26 33 14 18 1020.7 1019.9 0.0
18/10:00am 20.2 12.5 -0.4 25 9.2 SW 30 39 16 21 1021.0 1020.2 0.0
18/09:35am 20.3 12.5 -0.9 24 9.4 SW 30 48 16 26 1021.3 1020.5 0.0
18/09:30am 20.2 12.8 -1.0 24 9.4 WSW 28 35 15 19 1021.3 1020.5 0.0
18/09:00am 18.4 12.5 -0.9 27 8.4 S 20 33 11 18 1021.5 1020.7 0.0
18/08:30am 16.8 12.5 0.9 34 7.1 SSW 13 17 7 9 1021.3 1020.5 0.0
18/08:00am 14.8 11.7 1.3 40 5.9 SSE 7 11 4 6 1021.0 1020.2 0.0
18/07:30am 12.4 10.5 2.6 51 4.4 E 2 7 1 4 1020.8 1020.0 0.0
18/07:00am 9.6 7.4 3.6 66 2.7 ENE 4 7 2 4 1020.6 1019.8 0.0
18/06:30am 6.9 5.0 2.8 75 1.7 SW 2 6 1 3 1020.2 1019.4 0.0
18/06:00am 5.5 2.4 1.2 74 1.7 W 7 9 4 5 1019.9 1019.1 0.0
18/05:30am 5.0 2.4 1.1 76 1.6 W 4 7 2 4 1019.6 1018.8 0.0
18/05:00am 4.4 1.5 1.3 80 1.2 N 6 9 3 5 1019.3 1018.5 0.0
18/04:30am 4.8 1.2 0.9 76 1.5 N 9 11 5 6 1018.8 1018.0 0.0
18/04:00am 5.8 4.0 1.0 71 1.9 CALM 0 0 0 0 1018.5 1017.7 0.0
18/03:30am 7.0 5.2 1.1 66 2.4 CALM 0 4 0 2 1018.3 1017.4 0.0
18/03:00am 10.5 7.5 0.8 51 4.1 SW 6 7 3 4 1018.4 1017.5 0.0
18/02:30am 11.4 7.4 0.8 48 4.5 SSW 11 13 6 7 1018.2 1017.3 0.0
18/02:00am 11.7 7.4 1.1 48 4.5 SW 13 15 7 8 1018.1 1017.2 0.0
18/01:30am 12.6 7.9 1.0 45 5.0 SW 15 19 8 10 1018.1 1017.2 0.0
18/01:00am 12.6 8.0 1.3 46 4.9 SW 15 15 8 8 1018.0 1017.1 0.0
18/12:30am 13.1 8.4 1.1 44 5.2 SW 15 17 8 9 1018.0 1017.1 0.0
18/12:00am 13.2 8.9 0.9 43 5.3 SW 13 15 7 8 1017.9 1017.0 0.0
 
Date/Time
EST
Temp
°C
App
Temp
°C
Dew
Point
Rel
Hum
%
Delta-T
°C
Wind Press
QNH
hPa
Press
MSL
hPa
Rain
since 9 am
mm
Dir
 
Spd
km/h
Gust
km/h
Spd
kts
Gust
kts
17/11:30pm 14.2 10.2 0.5 39 5.9 SW 11 15 6 8 1017.6 1016.8 0.0
17/11:00pm 14.6 9.9 1.2 40 5.9 SW 15 17 8 9 1017.1 1016.3 0.0
17/10:30pm 14.8 11.2 0.6 38 6.2 SW 9 13 5 7 1016.8 1016.0 0.0
17/10:00pm 15.6 11.6 0.2 35 6.7 SW 11 13 6 7 1016.7 1015.9 0.0
17/09:30pm 16.8 12.9 0.9 34 7.1 SSW 11 13 6 7 1016.6 1015.8 0.0
17/09:00pm 16.9 12.9 0.5 33 7.3 SSW 11 13 6 7 1016.5 1015.7 0.0
17/08:30pm 16.4 12.8 0.5 34 7.0 SW 9 13 5 7 1016.1 1015.3 0.0
17/08:00pm 16.6 12.2 0.3 33 7.2 SW 13 17 7 9 1015.9 1015.0 0.0
17/07:30pm 16.0 11.5 -0.2 33 7.0 SW 13 15 7 8 1015.5 1014.6 0.0
17/07:00pm 17.1 12.6 -0.6 30 7.7 WSW 13 15 7 8 1015.2 1014.3 0.0
17/06:30pm 19.0 14.0 -0.9 26 8.7 WSW 15 19 8 10 1014.6 1013.8 0.0
17/06:00pm 20.2 15.2 -1.0 24 9.4 WSW 15 19 8 10 1014.2 1013.4 0.0
17/05:30pm 22.7 16.6 -2.1 19 11.0 WSW 20 24 11 13 1013.8 1013.0 0.0
17/05:00pm 24.2 16.4 -4.0 15 12.2 W 28 35 15 19 1013.6 1012.8 0.0
17/04:30pm 25.0 17.5 -4.3 14 12.7 W 26 35 14 19 1013.3 1012.4 0.0
17/04:00pm 25.4 17.2 -4.0 14 12.8 W 30 37 16 20 1013.0 1012.1 0.0
17/03:30pm 25.3 18.6 -4.1 14 12.8 WSW 22 28 12 15 1013.0 1012.1 0.0
17/03:17pm 25.8 18.0 -3.7 14 13.0 W 28 48 15 26 1013.0 1012.1 0.0
17/03:00pm 25.8 16.2 -4.7 13 13.2 W 37 48 20 26 1013.1 1012.2 0.0
17/02:30pm 25.9 17.4 -3.6 14 13.0 W 32 44 17 24 1013.2 1012.3 0.0
17/02:00pm 25.1 17.1 -2.5 16 12.3 W 30 43 16 23 1013.5 1012.7 0.0
17/01:30pm 25.9 19.4 0.5 19 12.1 W 24 33 13 18 1013.7 1012.9 0.0
17/01:05pm 25.3 17.5 -0.7 18 12.0 W 30 48 16 26 1014.1 1013.3 0.0
17/01:00pm 24.4 16.9 -1.4 18 11.7 W 28 41 15 22 1014.3 1013.5 0.0
17/12:30pm 25.2 18.9 -0.8 18 12.0 W 22 37 12 20 1014.4 1013.6 0.0
17/12:00pm 24.6 19.2 1.5 22 11.1 WNW 19 32 10 17 1014.9 1014.0 0.0
17/11:30am 24.3 18.9 1.2 22 11.0 W 19 37 10 20 1015.4 1014.5 0.0
17/11:00am 22.5 16.8 0.4 23 10.2 W 20 30 11 16 1016.2 1015.4 0.0
17/10:30am 22.1 18.6 5.5 34 8.4 WSW 13 24 7 13 1016.8 1016.0 0.0
17/10:00am 20.7 17.1 3.0 31 8.5 WSW 11 17 6 9 1017.1 1016.3 0.0
17/09:30am 20.0 17.1 4.5 36 7.6 WSW 9 13 5 7 1017.1 1016.3 0.0
17/09:00am 19.0 15.5 5.5 41 6.7 WSW 13 15 7 8 1017.3 1016.5 -
17/08:30am 17.7 14.7 4.3 41 6.5 W 9 13 5 7 1017.3 1016.5 -
17/08:00am 15.8 12.3 3.3 43 5.8 W 11 15 6 8 1017.2 1016.4 -
17/07:30am 13.9 11.7 5.3 56 4.1 NW 6 9 3 5 1016.8 1016.0 -
17/07:00am 9.9 8.8 5.1 72 2.2 CALM 0 0 0 0 1016.6 1015.8 -
17/06:30am 7.3 4.8 4.8 84 1.1 NNE 7 9 4 5 1016.0 1015.2 -
17/06:00am 6.1 3.4 3.9 86 1.0 NNE 7 9 4 5 1015.6 1014.7 -
17/05:30am 6.3 3.3 4.0 85 1.0 NNE 9 9 5 5 1015.4 1014.5 -
17/05:00am 6.4 4.3 3.9 84 1.1 N 4 9 2 5 1015.3 1014.4 -
17/04:30am 7.1 5.8 4.2 82 1.3 CALM 0 0 0 0 1015.0 1014.1 -
17/04:00am 8.5 7.3 4.7 77 1.7 CALM 0 0 0 0 1014.6 1013.8 -
17/03:30am 8.5 7.3 4.7 77 1.7 CALM 0 0 0 0 1014.6 1013.8 -
17/03:00am 8.1 5.8 4.7 79 1.5 NNE 6 6 3 3 1014.6 1013.8 0.0
17/02:30am 8.0 5.5 4.8 80 1.4 NNE 7 9 4 5 1014.5 1013.7 -
17/02:00am 8.8 5.7 5.7 81 1.4 N 11 13 6 7 1014.5 1013.7 -
17/01:30am 9.4 8.4 5.6 77 1.8 CALM 0 0 0 0 1014.6 1013.8 -
17/01:00am 11.1 9.2 6.5 73 2.2 W 6 7 3 4 1014.6 1013.8 -
17/12:30am 10.7 8.6 5.9 72 2.3 SW 6 6 3 3 1014.9 1014.0 -
17/12:00am 11.9 9.6 5.8 66 2.9 WSW 7 9 4 5 1015.1 1014.2 -
 
Date/Time
EST
Temp
°C
App
Temp
°C
Dew
Point
Rel
Hum
%
Delta-T
°C
Wind Press
QNH
hPa
Press
MSL
hPa
Rain
since 9 am
mm
Dir
 
Spd
km/h
Gust
km/h
Spd
kts
Gust
kts
16/11:30pm 11.6 8.9 7.3 75 2.1 N 11 13 6 7 1015.1 1014.2 -
16/11:00pm 11.9 9.5 7.0 72 2.4 NNW 9 11 5 6 1014.7 1013.9 -
16/10:30pm 12.9 10.4 8.2 73 2.4 N 11 13 6 7 1014.7 1013.9 -
16/10:00pm 13.6 11.5 8.4 71 2.6 NNW 9 11 5 6 1014.5 1013.7 -
16/09:30pm 15.2 13.3 7.5 60 3.9 WSW 7 9 4 5 1014.4 1013.6 -
16/09:00pm 16.5 14.4 9.7 64 3.6 WSW 11 11 6 6 1014.0 1013.2 5.0
16/08:30pm 15.4 14.4 10.4 72 2.7 W 6 7 3 4 1013.7 1012.9 -
16/08:00pm 16.4 16.5 10.3 67 3.3 CALM 0 0 0 0 1013.3 1012.4 -
16/07:30pm 18.7 17.4 9.2 54 5.1 W 6 7 3 4 1013.1 1012.2 -
16/07:00pm 19.9 18.4 9.2 50 5.8 W 7 9 4 5 1012.8 1011.9 -
16/06:30pm 21.3 19.2 9.9 48 6.3 SW 11 17 6 9 1012.4 1011.5 -
16/06:00pm 21.3 19.1 9.5 47 6.4 WNW 11 13 6 7 1012.0 1011.1 -
16/05:30pm 22.0 19.4 9.5 45 6.8 NW 13 17 7 9 1011.6 1010.8 -
16/05:00pm 24.1 23.2 10.7 43 7.6 N 6 15 3 8 1011.6 1010.8 -
16/04:30pm 21.3 20.8 13.7 62 4.5 ENE 9 11 5 6 1011.6 1010.8 -
16/04:00pm 22.5 21.1 10.9 48 6.5 ESE 9 15 5 8 1011.4 1010.6 -
16/03:36pm 22.0 19.3 8.9 43 7.1 NNE 13 24 7 13 1012.2 1011.3 -

Other Formats:

Comma delimited format used in spreadsheet applications
http://www.bom.gov.au/fwo/IDQ60801/IDQ60801.94542.axf

JavaScript Object Notation format (JSON) in row-major order
http://www.bom.gov.au/fwo/IDQ60801/IDQ60801.94542.json